Datum - Zeit
Döttingen
TemperaturTaupunktFeuchteSolar Wind aus
Richtung
Windböenaus
Richtung
Luftdruck
(QFF)
RegenRegen
Stärke
23.10.2019 - 00.00Uhr13.4 °C11.3 °C87 %0.0 W/m²0.0 km/hOsten0.0 km/hNorden1019.7 hPa0.0 mm0.0 mm/h
23.10.2019 - 00.05Uhr13.4 °C11.3 °C87 %0.0 W/m²0.0 km/hOsten0.0 km/hNorden1019.6 hPa0.0 mm0.0 mm/h
23.10.2019 - 00.10Uhr13.7 °C11.6 °C87 %0.0 W/m²0.0 km/hOsten0.0 km/hNorden1019.6 hPa0.0 mm0.0 mm/h
23.10.2019 - 00.15Uhr13.7 °C11.6 °C87 %0.0 W/m²0.0 km/hOsten0.0 km/hNorden1019.5 hPa0.0 mm0.0 mm/h
23.10.2019 - 00.20Uhr13.5 °C11.4 °C87 %0.0 W/m²0.0 km/hOsten0.0 km/hNorden1019.4 hPa0.0 mm0.0 mm/h
23.10.2019 - 00.25Uhr13.3 °C11.2 °C87 %0.0 W/m²0.0 km/hOsten0.0 km/hNorden1019.4 hPa0.0 mm0.0 mm/h
23.10.2019 - 00.30Uhr13.3 °C11.2 °C87 %0.0 W/m²1.1 km/hOsten4.0 km/hOsten1019.3 hPa0.0 mm0.0 mm/h
23.10.2019 - 00.35Uhr13.2 °C11.1 °C87 %0.0 W/m²0.0 km/hOsten0.0 km/hNorden1019.2 hPa0.0 mm0.0 mm/h
23.10.2019 - 00.40Uhr13.2 °C11.1 °C87 %0.0 W/m²0.0 km/hOsten0.0 km/hNorden1019.2 hPa0.0 mm0.0 mm/h
23.10.2019 - 00.45Uhr13.1 °C11.0 °C87 %0.0 W/m²0.0 km/hOsten0.0 km/hNorden1019.1 hPa0.0 mm0.0 mm/h
23.10.2019 - 00.50Uhr13.0 °C10.9 °C87 %0.0 W/m²0.0 km/hOsten0.0 km/hNorden1018.9 hPa0.0 mm0.0 mm/h
23.10.2019 - 00.55Uhr13.1 °C11.0 °C87 %0.0 W/m²0.6 km/hOsten1.8 km/hOsten1018.9 hPa0.0 mm0.0 mm/h
23.10.2019 - 01.00Uhr13.1 °C11.0 °C87 %0.0 W/m²1.0 km/hOsten4.0 km/hOsten1018.8 hPa0.0 mm0.0 mm/h
23.10.2019 - 01.05Uhr13.2 °C11.1 °C87 %0.0 W/m²1.3 km/hOsten4.0 km/hOsten1018.9 hPa0.0 mm0.0 mm/h
23.10.2019 - 01.10Uhr13.3 °C11.2 °C87 %0.0 W/m²1.9 km/hOsten5.8 km/hOsten1019.0 hPa0.0 mm0.0 mm/h
23.10.2019 - 01.15Uhr13.3 °C11.2 °C87 %0.0 W/m²2.8 km/hOsten5.8 km/hOsten1018.8 hPa0.0 mm0.0 mm/h
23.10.2019 - 01.20Uhr13.4 °C11.3 °C87 %0.0 W/m²3.4 km/hOsten5.8 km/hOsten1018.6 hPa0.0 mm0.0 mm/h
23.10.2019 - 01.25Uhr13.2 °C11.1 °C87 %0.0 W/m²1.2 km/hOsten4.0 km/hOsten1018.3 hPa0.0 mm0.0 mm/h
23.10.2019 - 01.30Uhr13.1 °C11.0 °C87 %0.0 W/m²4.7 km/hOsten14.0 km/hOsten1018.3 hPa0.0 mm0.0 mm/h
23.10.2019 - 01.35Uhr13.4 °C11.3 °C87 %0.0 W/m²3.4 km/hOsten12.2 km/hOsten1018.2 hPa0.0 mm0.0 mm/h
23.10.2019 - 01.40Uhr13.3 °C11.2 °C87 %0.0 W/m²0.3 km/hOsten1.8 km/hOsten1018.3 hPa0.0 mm0.0 mm/h
23.10.2019 - 01.45Uhr13.7 °C11.6 °C87 %0.0 W/m²7.1 km/hOst-SO16.2 km/hOst-SO1018.3 hPa0.0 mm0.0 mm/h
23.10.2019 - 01.50Uhr14.0 °C11.9 °C87 %0.0 W/m²1.6 km/hOst-SO8.3 km/hOst-SO1018.2 hPa0.0 mm0.0 mm/h
23.10.2019 - 01.55Uhr13.7 °C11.6 °C87 %0.0 W/m²0.0 km/hOst-SO0.0 km/hNorden1018.1 hPa0.0 mm0.0 mm/h
23.10.2019 - 02.00Uhr13.5 °C11.4 °C87 %0.0 W/m²1.9 km/hOst-SO8.3 km/hOst-SO1018.0 hPa0.0 mm0.0 mm/h
23.10.2019 - 02.05Uhr13.5 °C11.4 °C87 %0.0 W/m²0.0 km/hOst-SO0.0 km/hNorden1018.0 hPa0.0 mm0.0 mm/h
23.10.2019 - 02.10Uhr13.5 °C11.4 °C87 %0.0 W/m²0.0 km/hOst-SO0.0 km/hNorden1018.0 hPa0.0 mm0.0 mm/h
23.10.2019 - 02.15Uhr13.7 °C11.6 °C87 %0.0 W/m²2.1 km/hOst-SO8.3 km/hOst-SO1018.1 hPa0.0 mm0.0 mm/h
23.10.2019 - 02.20Uhr13.9 °C11.8 °C87 %0.0 W/m²0.5 km/hOst-SO1.8 km/hOst-SO1018.1 hPa0.0 mm0.0 mm/h
23.10.2019 - 02.25Uhr14.0 °C11.9 °C87 %0.0 W/m²3.3 km/hOst-SO8.3 km/hOst-SO1018.1 hPa0.0 mm0.0 mm/h
23.10.2019 - 02.30Uhr14.2 °C12.1 °C87 %0.0 W/m²2.8 km/hOst-SO8.3 km/hOst-SO1018.1 hPa0.0 mm0.0 mm/h
23.10.2019 - 02.35Uhr14.3 °C12.2 °C87 %0.0 W/m²3.1 km/hOst-SO8.3 km/hOst-SO1018.1 hPa0.0 mm0.0 mm/h
23.10.2019 - 02.40Uhr14.3 °C12.2 °C87 %0.0 W/m²3.6 km/hOst-SO8.3 km/hOst-SO1018.0 hPa0.0 mm0.0 mm/h
23.10.2019 - 02.45Uhr14.3 °C12.2 °C87 %0.0 W/m²6.3 km/hOst-SO12.2 km/hOst-SO1018.0 hPa0.0 mm0.0 mm/h
23.10.2019 - 02.50Uhr14.3 °C12.2 °C87 %0.0 W/m²8.2 km/hOst-SO22.0 km/hSüdosten1017.7 hPa0.0 mm0.0 mm/h
23.10.2019 - 02.55Uhr14.3 °C12.1 °C86 %0.0 W/m²5.3 km/hOsten14.0 km/hOsten1017.7 hPa0.0 mm0.0 mm/h
23.10.2019 - 03.00Uhr14.3 °C12.1 °C87 %0.0 W/m²1.1 km/hOst-NO4.0 km/hOst-NO1017.6 hPa0.0 mm0.0 mm/h
23.10.2019 - 03.05Uhr14.2 °C12.1 °C87 %0.0 W/m²7.6 km/hOst-SO16.2 km/hOst-SO1017.5 hPa0.0 mm0.0 mm/h
23.10.2019 - 03.10Uhr14.3 °C12.2 °C87 %0.0 W/m²8.9 km/hNordosten18.0 km/hSüdosten1017.4 hPa0.0 mm0.0 mm/h
23.10.2019 - 03.15Uhr14.2 °C12.0 °C86 %0.0 W/m²7.4 km/hOst-SO16.2 km/hOsten1017.4 hPa0.0 mm0.0 mm/h
23.10.2019 - 03.20Uhr14.2 °C12.1 °C87 %0.0 W/m²2.3 km/hOst-SO8.3 km/hOst-SO1017.3 hPa0.0 mm0.0 mm/h
23.10.2019 - 03.25Uhr14.1 °C11.9 °C87 %0.0 W/m²1.4 km/hOst-SO8.3 km/hOst-SO1017.4 hPa0.0 mm0.0 mm/h
23.10.2019 - 03.30Uhr14.1 °C12.0 °C87 %0.0 W/m²1.7 km/hOst-SO8.3 km/hOst-SO1017.4 hPa0.0 mm0.0 mm/h
23.10.2019 - 03.35Uhr14.0 °C11.9 °C87 %0.0 W/m²3.3 km/hOsten8.3 km/hOsten1017.4 hPa0.0 mm0.0 mm/h
23.10.2019 - 03.40Uhr14.1 °C12.0 °C87 %0.0 W/m²3.5 km/hOst-NO8.3 km/hOst-NO1017.3 hPa0.0 mm0.0 mm/h
23.10.2019 - 03.45Uhr14.1 °C12.0 °C87 %0.0 W/m²2.4 km/hOst-NO8.3 km/hOst-NO1017.2 hPa0.0 mm0.0 mm/h
23.10.2019 - 03.50Uhr14.1 °C12.0 °C87 %0.0 W/m²0.5 km/hOst-NO1.8 km/hOst-NO1017.2 hPa0.0 mm0.0 mm/h
23.10.2019 - 03.55Uhr13.9 °C11.8 °C87 %0.0 W/m²3.9 km/hOst-NO12.2 km/hOsten1017.1 hPa0.0 mm0.0 mm/h
23.10.2019 - 04.00Uhr14.0 °C11.9 °C87 %0.0 W/m²2.8 km/hOsten10.1 km/hOsten1017.1 hPa0.0 mm0.0 mm/h
23.10.2019 - 04.05Uhr14.0 °C11.9 °C87 %0.0 W/m²5.6 km/hOsten14.0 km/hOst-SO1017.0 hPa0.0 mm0.0 mm/h
23.10.2019 - 04.10Uhr13.9 °C11.8 °C87 %0.0 W/m²2.8 km/hOsten12.2 km/hOsten1016.9 hPa0.0 mm0.0 mm/h
23.10.2019 - 04.15Uhr13.9 °C11.8 °C87 %0.0 W/m²2.2 km/hOsten8.3 km/hOsten1017.0 hPa0.0 mm0.0 mm/h
23.10.2019 - 04.20Uhr13.9 °C11.8 °C87 %0.0 W/m²2.4 km/hOsten8.3 km/hOsten1017.0 hPa0.0 mm0.0 mm/h
23.10.2019 - 04.25Uhr13.9 °C11.8 °C87 %0.0 W/m²4.1 km/hSüdosten14.0 km/hSüdosten1016.9 hPa0.0 mm0.0 mm/h
23.10.2019 - 04.30Uhr13.9 °C11.8 °C87 %0.0 W/m²3.8 km/hOsten8.3 km/hOsten1016.9 hPa0.0 mm0.0 mm/h
23.10.2019 - 04.35Uhr13.9 °C11.8 °C87 %0.0 W/m²6.9 km/hOsten24.5 km/hSüdosten1016.9 hPa0.0 mm0.0 mm/h
23.10.2019 - 04.40Uhr13.8 °C11.7 °C87 %0.0 W/m²7.3 km/hOst-SO16.2 km/hOst-SO1016.8 hPa0.0 mm0.0 mm/h
23.10.2019 - 04.45Uhr13.8 °C11.7 °C87 %0.0 W/m²4.4 km/hOst-NO10.1 km/hNord-NO1016.8 hPa0.0 mm0.0 mm/h
23.10.2019 - 04.50Uhr13.8 °C11.8 °C87 %0.0 W/m²3.2 km/hOsten8.3 km/hOsten1016.8 hPa0.0 mm0.0 mm/h
23.10.2019 - 04.55Uhr13.8 °C11.7 °C87 %0.0 W/m²1.6 km/hOst-NO4.0 km/hOst-NO1016.8 hPa0.0 mm0.0 mm/h
23.10.2019 - 05.00Uhr13.7 °C11.6 °C87 %0.0 W/m²0.0 km/hOst-NO0.0 km/hNorden1016.8 hPa0.0 mm0.0 mm/h
23.10.2019 - 05.05Uhr13.7 °C11.6 °C87 %0.0 W/m²0.6 km/hOst-NO1.8 km/hOst-NO1016.9 hPa0.0 mm0.0 mm/h
23.10.2019 - 05.10Uhr13.6 °C11.5 °C87 %0.0 W/m²1.8 km/hOst-NO5.8 km/hOst-NO1016.9 hPa0.0 mm0.0 mm/h
23.10.2019 - 05.15Uhr13.7 °C11.6 °C87 %0.0 W/m²2.9 km/hOst-NO8.3 km/hOst-NO1016.8 hPa0.0 mm0.0 mm/h
23.10.2019 - 05.20Uhr13.7 °C11.6 °C87 %0.0 W/m²0.4 km/hOst-NO1.8 km/hOst-NO1016.8 hPa0.0 mm0.0 mm/h
23.10.2019 - 05.25Uhr13.7 °C11.6 °C87 %0.0 W/m²1.5 km/hOst-NO4.0 km/hOst-NO1016.7 hPa0.0 mm0.0 mm/h
23.10.2019 - 05.30Uhr13.6 °C11.5 °C87 %0.0 W/m²1.9 km/hOst-NO5.8 km/hOst-NO1016.8 hPa0.0 mm0.0 mm/h
23.10.2019 - 05.35Uhr13.6 °C11.5 °C87 %0.0 W/m²2.4 km/hOst-NO8.3 km/hOsten1016.6 hPa0.0 mm0.0 mm/h
23.10.2019 - 05.40Uhr13.6 °C11.5 °C87 %0.0 W/m²1.9 km/hOsten5.8 km/hOsten1016.5 hPa0.0 mm0.0 mm/h
23.10.2019 - 05.45Uhr13.6 °C11.4 °C87 %0.0 W/m²4.5 km/hOsten10.1 km/hOsten1016.5 hPa0.0 mm0.0 mm/h
23.10.2019 - 05.50Uhr13.6 °C11.5 °C87 %0.0 W/m²1.7 km/hOsten5.8 km/hOsten1016.5 hPa0.0 mm0.0 mm/h
23.10.2019 - 05.55Uhr13.4 °C11.3 °C87 %0.0 W/m²1.5 km/hOsten4.0 km/hOsten1016.5 hPa0.0 mm0.0 mm/h
23.10.2019 - 06.00Uhr13.4 °C11.3 °C87 %0.0 W/m²0.6 km/hOsten1.8 km/hOsten1016.5 hPa0.0 mm0.0 mm/h
23.10.2019 - 06.05Uhr13.4 °C11.3 °C87 %0.0 W/m²1.1 km/hOsten4.0 km/hOsten1016.5 hPa0.0 mm0.0 mm/h
23.10.2019 - 06.10Uhr13.3 °C11.2 °C87 %0.0 W/m²0.0 km/hOsten0.0 km/hNorden1016.5 hPa0.0 mm0.0 mm/h
23.10.2019 - 06.15Uhr13.3 °C11.2 °C87 %0.0 W/m²0.0 km/hOsten0.0 km/hNorden1016.5 hPa0.0 mm0.0 mm/h
23.10.2019 - 06.20Uhr13.3 °C11.2 °C87 %0.0 W/m²2.9 km/hOsten8.3 km/hOsten1016.4 hPa0.0 mm0.0 mm/h
23.10.2019 - 06.25Uhr13.2 °C11.1 °C87 %0.0 W/m²1.2 km/hOsten4.0 km/hOsten1016.4 hPa0.0 mm0.0 mm/h
23.10.2019 - 06.30Uhr13.2 °C11.1 °C87 %0.0 W/m²1.5 km/hOsten5.8 km/hOsten1016.3 hPa0.0 mm0.0 mm/h
23.10.2019 - 06.35Uhr13.2 °C11.2 °C87 %0.0 W/m²1.8 km/hOsten8.3 km/hOsten1016.2 hPa0.0 mm0.0 mm/h
23.10.2019 - 06.40Uhr13.3 °C11.2 °C87 %0.0 W/m²2.8 km/hOsten8.3 km/hOsten1016.3 hPa0.0 mm0.0 mm/h
23.10.2019 - 06.45Uhr13.3 °C11.2 °C87 %0.0 W/m²1.7 km/hOsten8.3 km/hOsten1016.3 hPa0.0 mm0.0 mm/h
23.10.2019 - 06.50Uhr13.3 °C11.2 °C87 %0.0 W/m²1.8 km/hOsten5.8 km/hOsten1016.3 hPa0.0 mm0.0 mm/h
23.10.2019 - 06.55Uhr13.2 °C11.2 °C87 %0.0 W/m²0.3 km/hOsten1.8 km/hOsten1016.2 hPa0.0 mm0.0 mm/h
23.10.2019 - 07.00Uhr13.2 °C11.1 °C87 %0.0 W/m²2.3 km/hOsten5.8 km/hOsten1016.2 hPa0.0 mm0.0 mm/h
23.10.2019 - 07.05Uhr13.2 °C11.1 °C87 %0.0 W/m²2.3 km/hOsten8.3 km/hOsten1016.2 hPa0.0 mm0.0 mm/h
23.10.2019 - 07.10Uhr13.1 °C11.0 °C87 %0.0 W/m²0.3 km/hOsten1.8 km/hOsten1016.2 hPa0.0 mm0.0 mm/h
23.10.2019 - 07.15Uhr13.1 °C11.0 °C87 %0.0 W/m²0.5 km/hOsten1.8 km/hOsten1016.1 hPa0.0 mm0.0 mm/h
23.10.2019 - 07.20Uhr13.1 °C11.0 °C87 %0.0 W/m²2.7 km/hOsten8.3 km/hOsten1016.1 hPa0.0 mm0.0 mm/h
23.10.2019 - 07.25Uhr13.1 °C11.0 °C87 %0.0 W/m²2.3 km/hOsten5.8 km/hOsten1016.1 hPa0.0 mm0.0 mm/h
23.10.2019 - 07.30Uhr13.1 °C11.0 °C87 %0.0 W/m²2.6 km/hOst-NO8.3 km/hOst-NO1016.0 hPa0.0 mm0.0 mm/h
23.10.2019 - 07.35Uhr13.1 °C11.0 °C87 %0.0 W/m²2.0 km/hOst-NO8.3 km/hOst-NO1016.0 hPa0.0 mm0.0 mm/h
23.10.2019 - 07.40Uhr13.1 °C11.0 °C87 %0.0 W/m²0.5 km/hOst-NO4.0 km/hOst-NO1015.9 hPa0.0 mm0.0 mm/h
23.10.2019 - 07.45Uhr13.0 °C10.9 °C87 %0.0 W/m²2.5 km/hOst-NO8.3 km/hOst-NO1015.9 hPa0.0 mm0.0 mm/h
23.10.2019 - 07.50Uhr12.9 °C10.8 °C87 %0.0 W/m²2.3 km/hOst-NO5.8 km/hOst-NO1016.0 hPa0.0 mm0.0 mm/h
23.10.2019 - 07.55Uhr12.9 °C10.8 °C87 %0.0 W/m²2.8 km/hOst-NO8.3 km/hOst-NO1015.9 hPa0.0 mm0.0 mm/h
23.10.2019 - 08.00Uhr13.0 °C10.9 °C87 %0.0 W/m²1.8 km/hOst-NO5.8 km/hOst-NO1015.9 hPa0.0 mm0.0 mm/h
23.10.2019 - 08.05Uhr13.0 °C10.9 °C87 %0.0 W/m²2.0 km/hOst-NO8.3 km/hOst-NO1015.9 hPa0.0 mm0.0 mm/h
23.10.2019 - 08.10Uhr12.9 °C10.8 °C87 %5.0 W/m²3.6 km/hOst-NO8.3 km/hOst-NO1015.9 hPa0.0 mm0.0 mm/h
23.10.2019 - 08.15Uhr12.9 °C10.8 °C87 %9.0 W/m²4.3 km/hOst-NO12.2 km/hNord-NO1015.8 hPa0.0 mm0.0 mm/h
23.10.2019 - 08.20Uhr12.9 °C10.8 °C87 %11.0 W/m²3.3 km/hNordosten8.3 km/hOst-NO1015.8 hPa0.0 mm0.0 mm/h
23.10.2019 - 08.25Uhr12.9 °C10.8 °C87 %12.0 W/m²1.8 km/hNordosten5.8 km/hNordosten1016.0 hPa0.0 mm0.0 mm/h
23.10.2019 - 08.30Uhr12.9 °C10.8 °C87 %12.0 W/m²3.3 km/hNordosten8.3 km/hNordosten1016.0 hPa0.0 mm0.0 mm/h
23.10.2019 - 08.35Uhr12.9 °C10.8 °C87 %16.0 W/m²1.7 km/hNordosten5.8 km/hNordosten1015.9 hPa0.0 mm0.0 mm/h
23.10.2019 - 08.40Uhr12.8 °C10.7 °C87 %18.0 W/m²3.1 km/hNordosten8.3 km/hNordosten1015.9 hPa0.0 mm0.0 mm/h
23.10.2019 - 08.45Uhr12.8 °C10.7 °C87 %21.0 W/m²3.0 km/hNordosten8.3 km/hNordosten1015.8 hPa0.0 mm0.0 mm/h
23.10.2019 - 08.50Uhr12.8 °C10.7 °C87 %25.0 W/m²3.4 km/hNordosten8.3 km/hNordosten1015.8 hPa0.0 mm0.0 mm/h
23.10.2019 - 08.55Uhr12.9 °C10.8 °C87 %26.0 W/m²2.7 km/hNordosten12.2 km/hNordosten1015.8 hPa0.0 mm0.0 mm/h
23.10.2019 - 09.00Uhr12.9 °C10.8 °C87 %28.0 W/m²6.2 km/hNord-NO14.0 km/hNordosten1015.8 hPa0.0 mm0.0 mm/h
23.10.2019 - 09.05Uhr12.9 °C10.8 °C87 %30.0 W/m²1.1 km/hNordosten4.0 km/hNordosten1015.8 hPa0.0 mm0.0 mm/h
23.10.2019 - 09.10Uhr12.9 °C10.8 °C87 %35.0 W/m²2.0 km/hNordosten5.8 km/hNordosten1015.8 hPa0.0 mm0.0 mm/h
23.10.2019 - 09.15Uhr12.9 °C10.8 °C87 %35.0 W/m²1.5 km/hNordosten5.8 km/hNordosten1015.8 hPa0.0 mm0.0 mm/h
23.10.2019 - 09.20Uhr12.9 °C10.8 °C87 %42.0 W/m²1.5 km/hNordosten5.8 km/hNordosten1015.8 hPa0.0 mm0.0 mm/h
23.10.2019 - 09.25Uhr12.9 °C10.8 °C87 %47.0 W/m²5.1 km/hOst-SO12.2 km/hOst-SO1015.8 hPa0.0 mm0.0 mm/h
23.10.2019 - 09.30Uhr13.0 °C10.9 °C87 %49.0 W/m²4.5 km/hOst-SO8.3 km/hNordosten1015.7 hPa0.0 mm0.0 mm/h
23.10.2019 - 09.35Uhr13.0 °C10.9 °C87 %47.0 W/m²2.5 km/hNordosten5.8 km/hNordosten1015.7 hPa0.0 mm0.0 mm/h
23.10.2019 - 09.40Uhr12.9 °C10.8 °C87 %56.0 W/m²0.8 km/hNordosten4.0 km/hNordosten1015.5 hPa0.0 mm0.0 mm/h
23.10.2019 - 09.45Uhr13.1 °C11.0 °C87 %63.0 W/m²1.0 km/hNordosten4.0 km/hNordosten1015.5 hPa0.0 mm0.0 mm/h
23.10.2019 - 09.50Uhr13.1 °C11.0 °C87 %65.0 W/m²1.5 km/hNordosten4.0 km/hNordosten1015.5 hPa0.0 mm0.0 mm/h
23.10.2019 - 09.55Uhr13.1 °C11.0 °C87 %76.0 W/m²2.0 km/hNordosten8.3 km/hNordosten1015.5 hPa0.0 mm0.0 mm/h
23.10.2019 - 10.00Uhr13.2 °C11.1 °C87 %74.0 W/m²2.5 km/hNordosten5.8 km/hNordosten1015.4 hPa0.0 mm0.0 mm/h
23.10.2019 - 10.05Uhr13.3 °C11.2 °C87 %84.0 W/m²1.6 km/hNordosten5.8 km/hNordosten1015.4 hPa0.0 mm0.0 mm/h
23.10.2019 - 10.10Uhr13.2 °C11.1 °C87 %77.0 W/m²4.2 km/hNordosten8.3 km/hNordosten1015.4 hPa0.0 mm0.0 mm/h
23.10.2019 - 10.15Uhr13.2 °C11.1 °C87 %79.0 W/m²3.4 km/hOsten8.3 km/hOsten1015.4 hPa0.0 mm0.0 mm/h
23.10.2019 - 10.20Uhr13.2 °C11.1 °C87 %88.0 W/m²0.6 km/hOsten4.0 km/hOsten1015.3 hPa0.0 mm0.0 mm/h
23.10.2019 - 10.25Uhr13.3 °C11.2 °C87 %91.0 W/m²0.9 km/hOsten5.8 km/hOsten1015.4 hPa0.0 mm0.0 mm/h
23.10.2019 - 10.30Uhr13.4 °C11.3 °C87 %95.0 W/m²2.0 km/hOsten8.3 km/hOst-NO1015.4 hPa0.0 mm0.0 mm/h
23.10.2019 - 10.35Uhr13.4 °C11.3 °C87 %105.0 W/m²1.6 km/hOst-NO5.8 km/hOst-NO1015.4 hPa0.0 mm0.0 mm/h
23.10.2019 - 10.40Uhr13.5 °C11.4 °C87 %109.0 W/m²2.3 km/hOst-NO5.8 km/hOst-NO1015.4 hPa0.0 mm0.0 mm/h
23.10.2019 - 10.45Uhr13.4 °C11.3 °C87 %107.0 W/m²2.4 km/hOst-NO5.8 km/hOst-NO1015.5 hPa0.0 mm0.0 mm/h
23.10.2019 - 10.50Uhr13.5 °C11.4 °C87 %149.0 W/m²4.0 km/hOst-NO8.3 km/hOsten1015.5 hPa0.0 mm0.0 mm/h
23.10.2019 - 10.55Uhr13.5 °C11.4 °C87 %169.0 W/m²2.1 km/hOsten5.8 km/hOsten1015.4 hPa0.0 mm0.0 mm/h
23.10.2019 - 11.00Uhr13.6 °C11.4 °C87 %123.0 W/m²4.2 km/hOsten8.3 km/hOsten1015.5 hPa0.0 mm0.0 mm/h
23.10.2019 - 11.05Uhr13.6 °C11.3 °C86 %114.0 W/m²4.9 km/hOsten8.3 km/hOsten1015.5 hPa0.0 mm0.0 mm/h
23.10.2019 - 11.10Uhr13.6 °C11.5 °C87 %104.0 W/m²7.0 km/hOsten12.2 km/hOst-SO1015.4 hPa0.0 mm0.0 mm/h
23.10.2019 - 11.15Uhr13.6 °C11.5 °C87 %158.0 W/m²1.3 km/hOst-SO4.0 km/hOst-SO1015.3 hPa0.0 mm0.0 mm/h
23.10.2019 - 11.20Uhr13.7 °C11.5 °C87 %151.0 W/m²5.1 km/hOst-SO8.3 km/hOst-SO1015.2 hPa0.0 mm0.0 mm/h
23.10.2019 - 11.25Uhr13.7 °C11.5 °C87 %134.0 W/m²3.9 km/hOsten8.3 km/hOst-SO1015.2 hPa0.0 mm0.0 mm/h
23.10.2019 - 11.30Uhr13.8 °C11.6 °C87 %199.0 W/m²3.0 km/hOsten8.3 km/hOsten1015.1 hPa0.0 mm0.0 mm/h
23.10.2019 - 11.35Uhr13.8 °C11.5 °C86 %178.0 W/m²3.2 km/hOsten8.3 km/hOsten1015.1 hPa0.0 mm0.0 mm/h
23.10.2019 - 11.40Uhr13.8 °C11.7 °C87 %165.0 W/m²2.3 km/hOsten8.3 km/hOsten1015.0 hPa0.0 mm0.0 mm/h
23.10.2019 - 11.45Uhr13.8 °C11.5 °C86 %158.0 W/m²3.6 km/hOsten8.3 km/hOsten1015.0 hPa0.0 mm0.0 mm/h
23.10.2019 - 11.50Uhr13.8 °C11.5 °C86 %146.0 W/m²5.9 km/hOsten14.0 km/hOst-SO1015.0 hPa0.0 mm0.0 mm/h
23.10.2019 - 11.55Uhr13.8 °C11.5 °C86 %202.0 W/m²7.5 km/hOst-SO12.2 km/hOst-SO1015.1 hPa0.0 mm0.0 mm/h
23.10.2019 - 12.00Uhr13.8 °C11.5 °C86 %232.0 W/m²6.7 km/hSüdosten12.2 km/hOst-SO1015.1 hPa0.0 mm0.0 mm/h
23.10.2019 - 12.05Uhr13.8 °C11.5 °C86 %220.0 W/m²5.9 km/hOst-SO10.1 km/hOst-SO1015.1 hPa0.0 mm0.0 mm/h
23.10.2019 - 12.10Uhr13.9 °C11.5 °C86 %176.0 W/m²8.1 km/hOst-SO16.2 km/hOst-SO1015.1 hPa0.0 mm0.0 mm/h
23.10.2019 - 12.15Uhr13.8 °C11.5 °C86 %257.0 W/m²7.7 km/hOst-SO12.2 km/hOst-SO1015.0 hPa0.0 mm0.0 mm/h
23.10.2019 - 12.20Uhr14.1 °C11.8 °C86 %264.0 W/m²7.5 km/hOsten12.2 km/hOsten1015.0 hPa0.0 mm0.0 mm/h
23.10.2019 - 12.25Uhr14.1 °C11.8 °C86 %269.0 W/m²7.3 km/hOst-SO14.0 km/hOst-SO1014.9 hPa0.0 mm0.0 mm/h
23.10.2019 - 12.30Uhr14.2 °C11.7 °C85 %218.0 W/m²8.6 km/hOst-SO12.2 km/hOst-SO1014.8 hPa0.0 mm0.0 mm/h
23.10.2019 - 12.35Uhr14.0 °C11.6 °C85 %209.0 W/m²3.4 km/hOst-SO8.3 km/hOst-SO1014.9 hPa0.0 mm0.0 mm/h
23.10.2019 - 12.40Uhr14.0 °C11.5 °C85 %232.0 W/m²7.0 km/hOst-SO12.2 km/hOst-SO1014.8 hPa0.0 mm0.0 mm/h
23.10.2019 - 12.45Uhr14.1 °C11.7 °C86 %213.0 W/m²11.3 km/hOst-SO12.2 km/hOsten1014.7 hPa0.0 mm0.0 mm/h
23.10.2019 - 12.50Uhr14.0 °C11.6 °C86 %206.0 W/m²7.0 km/hOst-SO12.2 km/hOst-SO1014.7 hPa0.0 mm0.0 mm/h